sensor_id;sensor_type;location;lat;lon;timestamp;P1;durP1;ratioP1;P2;durP2;ratioP2
19024;SDS011;9645;51.448;6.260;2022-11-21T00:02:12;75.50;;;22.88;;
19024;SDS011;9645;51.448;6.260;2022-11-21T00:04:39;68.22;;;20.42;;
19024;SDS011;9645;51.448;6.260;2022-11-21T00:07:06;69.35;;;21.65;;
19024;SDS011;9645;51.448;6.260;2022-11-21T00:09:33;67.70;;;21.95;;
19024;SDS011;9645;51.448;6.260;2022-11-21T00:12:02;72.57;;;22.85;;
19024;SDS011;9645;51.448;6.260;2022-11-21T00:14:29;72.80;;;22.30;;
19024;SDS011;9645;51.448;6.260;2022-11-21T00:16:56;62.28;;;20.85;;
19024;SDS011;9645;51.448;6.260;2022-11-21T00:19:23;71.93;;;21.83;;
19024;SDS011;9645;51.448;6.260;2022-11-21T00:21:50;67.07;;;21.38;;
19024;SDS011;9645;51.448;6.260;2022-11-21T00:24:17;63.42;;;22.33;;
19024;SDS011;9645;51.448;6.260;2022-11-21T00:26:44;57.45;;;19.92;;
19024;SDS011;9645;51.448;6.260;2022-11-21T00:29:12;61.58;;;21.48;;
19024;SDS011;9645;51.448;6.260;2022-11-21T00:31:39;81.05;;;23.60;;
19024;SDS011;9645;51.448;6.260;2022-11-21T00:34:06;72.13;;;21.52;;
19024;SDS011;9645;51.448;6.260;2022-11-21T00:36:34;65.55;;;21.50;;
19024;SDS011;9645;51.448;6.260;2022-11-21T00:39:01;65.95;;;21.58;;
19024;SDS011;9645;51.448;6.260;2022-11-21T00:41:27;100.50;;;22.75;;
19024;SDS011;9645;51.448;6.260;2022-11-21T00:43:54;83.38;;;24.77;;
19024;SDS011;9645;51.448;6.260;2022-11-21T00:46:23;69.85;;;23.00;;
19024;SDS011;9645;51.448;6.260;2022-11-21T00:48:50;64.82;;;21.35;;
19024;SDS011;9645;51.448;6.260;2022-11-21T00:51:17;64.93;;;20.88;;
19024;SDS011;9645;51.448;6.260;2022-11-21T00:53:44;57.13;;;21.65;;
19024;SDS011;9645;51.448;6.260;2022-11-21T00:56:11;63.25;;;20.98;;
19024;SDS011;9645;51.448;6.260;2022-11-21T00:58:38;62.13;;;22.30;;
19024;SDS011;9645;51.448;6.260;2022-11-21T01:01:06;82.75;;;19.58;;
19024;SDS011;9645;51.448;6.260;2022-11-21T01:03:37;59.40;;;18.92;;
19024;SDS011;9645;51.448;6.260;2022-11-21T01:06:05;58.83;;;19.70;;
19024;SDS011;9645;51.448;6.260;2022-11-21T01:08:33;53.75;;;19.80;;
19024;SDS011;9645;51.448;6.260;2022-11-21T01:11:01;65.82;;;19.20;;
19024;SDS011;9645;51.448;6.260;2022-11-21T01:13:29;56.00;;;19.73;;
19024;SDS011;9645;51.448;6.260;2022-11-21T01:16:01;64.28;;;20.70;;
19024;SDS011;9645;51.448;6.260;2022-11-21T01:18:29;70.35;;;20.35;;
19024;SDS011;9645;51.448;6.260;2022-11-21T01:20:59;57.58;;;20.10;;
19024;SDS011;9645;51.448;6.260;2022-11-21T01:23:26;58.47;;;19.20;;
19024;SDS011;9645;51.448;6.260;2022-11-21T01:25:53;57.60;;;19.23;;
19024;SDS011;9645;51.448;6.260;2022-11-21T01:28:20;78.32;;;22.88;;
19024;SDS011;9645;51.448;6.260;2022-11-21T01:30:47;59.72;;;21.33;;
19024;SDS011;9645;51.448;6.260;2022-11-21T01:33:14;74.47;;;20.13;;
19024;SDS011;9645;51.448;6.260;2022-11-21T01:35:41;63.40;;;20.45;;
19024;SDS011;9645;51.448;6.260;2022-11-21T01:38:09;60.40;;;19.02;;
19024;SDS011;9645;51.448;6.260;2022-11-21T01:40:36;72.82;;;20.02;;
19024;SDS011;9645;51.448;6.260;2022-11-21T01:43:08;59.10;;;20.52;;
19024;SDS011;9645;51.448;6.260;2022-11-21T01:48:33;61.03;;;20.15;;
19024;SDS011;9645;51.448;6.260;2022-11-21T01:51:05;60.78;;;20.40;;
19024;SDS011;9645;51.448;6.260;2022-11-21T01:53:38;65.20;;;19.80;;
19024;SDS011;9645;51.448;6.260;2022-11-21T01:56:08;58.78;;;20.50;;
19024;SDS011;9645;51.448;6.260;2022-11-21T01:58:35;59.58;;;20.02;;
19024;SDS011;9645;51.448;6.260;2022-11-21T02:01:05;74.43;;;22.00;;
19024;SDS011;9645;51.448;6.260;2022-11-21T02:03:32;71.47;;;20.83;;
19024;SDS011;9645;51.448;6.260;2022-11-21T02:06:03;61.75;;;20.10;;
19024;SDS011;9645;51.448;6.260;2022-11-21T02:08:32;76.05;;;22.58;;
19024;SDS011;9645;51.448;6.260;2022-11-21T02:11:04;69.88;;;19.95;;
19024;SDS011;9645;51.448;6.260;2022-11-21T02:13:37;61.78;;;21.10;;
19024;SDS011;9645;51.448;6.260;2022-11-21T02:16:04;65.97;;;21.13;;
19024;SDS011;9645;51.448;6.260;2022-11-21T02:18:32;69.50;;;20.77;;
19024;SDS011;9645;51.448;6.260;2022-11-21T02:21:01;72.32;;;23.45;;
19024;SDS011;9645;51.448;6.260;2022-11-21T02:23:37;64.70;;;21.88;;
19024;SDS011;9645;51.448;6.260;2022-11-21T02:26:11;87.28;;;23.67;;
19024;SDS011;9645;51.448;6.260;2022-11-21T02:28:39;65.85;;;21.17;;
19024;SDS011;9645;51.448;6.260;2022-11-21T02:31:06;74.55;;;23.42;;
19024;SDS011;9645;51.448;6.260;2022-11-21T02:33:33;79.70;;;21.95;;
19024;SDS011;9645;51.448;6.260;2022-11-21T02:36:00;60.85;;;21.80;;
19024;SDS011;9645;51.448;6.260;2022-11-21T02:38:29;71.53;;;20.52;;
19024;SDS011;9645;51.448;6.260;2022-11-21T02:41:00;67.78;;;22.02;;
19024;SDS011;9645;51.448;6.260;2022-11-21T02:43:37;73.50;;;22.02;;
19024;SDS011;9645;51.448;6.260;2022-11-21T02:46:07;70.70;;;22.13;;
19024;SDS011;9645;51.448;6.260;2022-11-21T02:48:35;75.05;;;22.70;;
19024;SDS011;9645;51.448;6.260;2022-11-21T02:51:02;65.20;;;20.33;;
19024;SDS011;9645;51.448;6.260;2022-11-21T02:53:30;72.75;;;20.45;;
19024;SDS011;9645;51.448;6.260;2022-11-21T02:55:57;71.10;;;21.00;;
19024;SDS011;9645;51.448;6.260;2022-11-21T02:58:24;78.60;;;20.52;;
19024;SDS011;9645;51.448;6.260;2022-11-21T03:00:52;71.70;;;21.65;;
19024;SDS011;9645;51.448;6.260;2022-11-21T03:03:20;72.38;;;21.67;;
19024;SDS011;9645;51.448;6.260;2022-11-21T03:05:47;57.00;;;20.27;;
19024;SDS011;9645;51.448;6.260;2022-11-21T03:08:14;72.40;;;21.55;;
19024;SDS011;9645;51.448;6.260;2022-11-21T03:10:41;72.20;;;21.00;;
19024;SDS011;9645;51.448;6.260;2022-11-21T03:13:08;75.10;;;19.45;;
19024;SDS011;9645;51.448;6.260;2022-11-21T03:15:35;63.50;;;18.85;;
19024;SDS011;9645;51.448;6.260;2022-11-21T03:18:04;58.28;;;19.65;;
19024;SDS011;9645;51.448;6.260;2022-11-21T03:20:31;77.97;;;19.60;;
19024;SDS011;9645;51.448;6.260;2022-11-21T03:23:00;82.65;;;22.45;;
19024;SDS011;9645;51.448;6.260;2022-11-21T03:25:27;88.82;;;22.05;;
19024;SDS011;9645;51.448;6.260;2022-11-21T03:27:55;83.53;;;20.70;;
19024;SDS011;9645;51.448;6.260;2022-11-21T03:30:23;72.65;;;20.38;;
19024;SDS011;9645;51.448;6.260;2022-11-21T03:32:53;69.55;;;21.13;;
19024;SDS011;9645;51.448;6.260;2022-11-21T03:35:22;85.80;;;23.40;;
19024;SDS011;9645;51.448;6.260;2022-11-21T03:37:50;82.22;;;22.50;;
19024;SDS011;9645;51.448;6.260;2022-11-21T03:40:17;77.28;;;22.23;;
19024;SDS011;9645;51.448;6.260;2022-11-21T03:42:44;68.50;;;20.52;;
19024;SDS011;9645;51.448;6.260;2022-11-21T03:45:11;72.85;;;21.42;;
19024;SDS011;9645;51.448;6.260;2022-11-21T03:47:38;65.40;;;19.08;;
19024;SDS011;9645;51.448;6.260;2022-11-21T03:50:05;80.55;;;21.20;;
19024;SDS011;9645;51.448;6.260;2022-11-21T03:52:34;82.18;;;22.00;;
19024;SDS011;9645;51.448;6.260;2022-11-21T03:55:01;72.90;;;20.20;;
19024;SDS011;9645;51.448;6.260;2022-11-21T03:57:28;77.03;;;21.13;;
19024;SDS011;9645;51.448;6.260;2022-11-21T03:59:55;73.18;;;20.92;;
19024;SDS011;9645;51.448;6.260;2022-11-21T04:02:22;69.85;;;21.15;;
19024;SDS011;9645;51.448;6.260;2022-11-21T04:04:49;64.95;;;20.38;;
19024;SDS011;9645;51.448;6.260;2022-11-21T04:07:16;70.70;;;22.67;;
19024;SDS011;9645;51.448;6.260;2022-11-21T04:09:45;72.90;;;19.35;;
19024;SDS011;9645;51.448;6.260;2022-11-21T04:12:12;70.32;;;19.45;;
19024;SDS011;9645;51.448;6.260;2022-11-21T04:14:39;65.28;;;20.15;;
19024;SDS011;9645;51.448;6.260;2022-11-21T04:17:07;67.20;;;19.08;;
19024;SDS011;9645;51.448;6.260;2022-11-21T04:19:33;62.38;;;19.25;;
19024;SDS011;9645;51.448;6.260;2022-11-21T04:22:00;69.35;;;20.30;;
19024;SDS011;9645;51.448;6.260;2022-11-21T04:24:27;80.88;;;21.67;;
19024;SDS011;9645;51.448;6.260;2022-11-21T04:26:56;84.07;;;24.23;;
19024;SDS011;9645;51.448;6.260;2022-11-21T04:29:23;76.60;;;22.92;;
19024;SDS011;9645;51.448;6.260;2022-11-21T04:31:50;91.95;;;24.70;;
19024;SDS011;9645;51.448;6.260;2022-11-21T04:34:17;77.43;;;22.33;;
19024;SDS011;9645;51.448;6.260;2022-11-21T04:36:43;83.22;;;23.50;;
19024;SDS011;9645;51.448;6.260;2022-11-21T04:39:10;83.15;;;23.55;;
19024;SDS011;9645;51.448;6.260;2022-11-21T04:41:37;81.82;;;21.17;;
19024;SDS011;9645;51.448;6.260;2022-11-21T04:44:06;67.05;;;20.30;;
19024;SDS011;9645;51.448;6.260;2022-11-21T04:46:33;86.00;;;22.65;;
19024;SDS011;9645;51.448;6.260;2022-11-21T04:49:00;76.70;;;21.35;;
19024;SDS011;9645;51.448;6.260;2022-11-21T04:51:27;82.75;;;22.85;;
19024;SDS011;9645;51.448;6.260;2022-11-21T04:53:54;73.75;;;22.40;;
19024;SDS011;9645;51.448;6.260;2022-11-21T04:56:21;92.95;;;22.38;;
19024;SDS011;9645;51.448;6.260;2022-11-21T04:58:50;83.18;;;23.10;;
19024;SDS011;9645;51.448;6.260;2022-11-21T05:01:18;69.85;;;20.73;;
19024;SDS011;9645;51.448;6.260;2022-11-21T05:03:45;80.57;;;23.33;;
19024;SDS011;9645;51.448;6.260;2022-11-21T05:06:12;96.88;;;23.13;;
19024;SDS011;9645;51.448;6.260;2022-11-21T05:08:39;72.05;;;22.08;;
19024;SDS011;9645;51.448;6.260;2022-11-21T05:11:06;92.85;;;21.08;;
19024;SDS011;9645;51.448;6.260;2022-11-21T05:13:51;70.57;;;19.48;;
19024;SDS011;9645;51.448;6.260;2022-11-21T05:16:20;79.68;;;22.85;;
19024;SDS011;9645;51.448;6.260;2022-11-21T05:18:48;77.18;;;20.65;;
19024;SDS011;9645;51.448;6.260;2022-11-21T05:21:15;83.50;;;22.20;;
19024;SDS011;9645;51.448;6.260;2022-11-21T05:23:42;76.75;;;21.48;;
19024;SDS011;9645;51.448;6.260;2022-11-21T05:26:09;81.70;;;22.45;;
19024;SDS011;9645;51.448;6.260;2022-11-21T05:28:37;79.88;;;21.00;;
19024;SDS011;9645;51.448;6.260;2022-11-21T05:31:04;78.20;;;22.20;;
19024;SDS011;9645;51.448;6.260;2022-11-21T05:33:32;91.78;;;24.45;;
19024;SDS011;9645;51.448;6.260;2022-11-21T05:35:59;75.25;;;23.17;;
19024;SDS011;9645;51.448;6.260;2022-11-21T05:38:26;75.50;;;21.27;;
19024;SDS011;9645;51.448;6.260;2022-11-21T05:40:53;81.07;;;22.45;;
19024;SDS011;9645;51.448;6.260;2022-11-21T05:43:20;68.82;;;21.38;;
19024;SDS011;9645;51.448;6.260;2022-11-21T05:46:04;85.43;;;23.95;;
19024;SDS011;9645;51.448;6.260;2022-11-21T05:48:34;67.75;;;20.05;;
19024;SDS011;9645;51.448;6.260;2022-11-21T05:51:03;73.80;;;21.33;;
19024;SDS011;9645;51.448;6.260;2022-11-21T05:53:30;79.50;;;22.13;;
19024;SDS011;9645;51.448;6.260;2022-11-21T05:56:01;105.97;;;24.60;;
19024;SDS011;9645;51.448;6.260;2022-11-21T05:58:31;86.28;;;21.67;;
19024;SDS011;9645;51.448;6.260;2022-11-21T06:00:58;74.25;;;20.17;;
19024;SDS011;9645;51.448;6.260;2022-11-21T06:03:26;72.55;;;22.23;;
19024;SDS011;9645;51.448;6.260;2022-11-21T06:06:02;100.00;;;22.77;;
19024;SDS011;9645;51.448;6.260;2022-11-21T06:08:31;77.78;;;21.45;;
19024;SDS011;9645;51.448;6.260;2022-11-21T06:11:01;74.28;;;21.50;;
19024;SDS011;9645;51.448;6.260;2022-11-21T06:13:30;87.88;;;22.27;;
19024;SDS011;9645;51.448;6.260;2022-11-21T06:15:59;62.30;;;20.02;;
19024;SDS011;9645;51.448;6.260;2022-11-21T06:18:28;92.28;;;22.88;;
19024;SDS011;9645;51.448;6.260;2022-11-21T06:20:59;101.07;;;24.90;;
19024;SDS011;9645;51.448;6.260;2022-11-21T06:23:28;80.47;;;21.50;;
19024;SDS011;9645;51.448;6.260;2022-11-21T06:25:56;80.45;;;21.40;;
19024;SDS011;9645;51.448;6.260;2022-11-21T06:28:24;78.90;;;22.52;;
19024;SDS011;9645;51.448;6.260;2022-11-21T06:30:54;90.15;;;22.83;;
19024;SDS011;9645;51.448;6.260;2022-11-21T06:33:21;108.53;;;23.25;;
19024;SDS011;9645;51.448;6.260;2022-11-21T06:35:48;88.25;;;25.30;;
19024;SDS011;9645;51.448;6.260;2022-11-21T06:38:17;105.50;;;24.98;;
19024;SDS011;9645;51.448;6.260;2022-11-21T06:40:44;107.15;;;26.88;;
19024;SDS011;9645;51.448;6.260;2022-11-21T06:43:11;115.88;;;26.10;;
19024;SDS011;9645;51.448;6.260;2022-11-21T06:45:38;130.57;;;25.25;;
19024;SDS011;9645;51.448;6.260;2022-11-21T06:48:05;106.07;;;24.65;;
19024;SDS011;9645;51.448;6.260;2022-11-21T06:50:32;89.75;;;23.45;;
19024;SDS011;9645;51.448;6.260;2022-11-21T06:52:59;117.43;;;25.92;;
19024;SDS011;9645;51.448;6.260;2022-11-21T06:55:29;85.80;;;22.77;;
19024;SDS011;9645;51.448;6.260;2022-11-21T06:57:57;92.13;;;21.95;;
19024;SDS011;9645;51.448;6.260;2022-11-21T07:00:24;90.88;;;23.70;;
19024;SDS011;9645;51.448;6.260;2022-11-21T07:02:52;99.88;;;25.55;;
19024;SDS011;9645;51.448;6.260;2022-11-21T07:05:19;86.75;;;22.20;;
19024;SDS011;9645;51.448;6.260;2022-11-21T07:07:46;89.47;;;23.60;;
19024;SDS011;9645;51.448;6.260;2022-11-21T07:10:13;107.35;;;22.90;;
19024;SDS011;9645;51.448;6.260;2022-11-21T07:12:41;118.32;;;26.08;;
19024;SDS011;9645;51.448;6.260;2022-11-21T07:15:26;105.50;;;27.35;;
19024;SDS011;9645;51.448;6.260;2022-11-21T07:17:53;112.47;;;28.55;;
19024;SDS011;9645;51.448;6.260;2022-11-21T07:20:20;98.28;;;23.70;;
19024;SDS011;9645;51.448;6.260;2022-11-21T07:22:47;116.20;;;26.30;;
19024;SDS011;9645;51.448;6.260;2022-11-21T07:25:18;108.43;;;26.70;;
19024;SDS011;9645;51.448;6.260;2022-11-21T07:27:46;102.53;;;24.85;;
19024;SDS011;9645;51.448;6.260;2022-11-21T07:30:13;133.10;;;28.00;;
19024;SDS011;9645;51.448;6.260;2022-11-21T07:32:40;116.28;;;26.20;;
19024;SDS011;9645;51.448;6.260;2022-11-21T07:35:08;94.22;;;25.77;;
19024;SDS011;9645;51.448;6.260;2022-11-21T07:37:36;121.93;;;29.27;;
19024;SDS011;9645;51.448;6.260;2022-11-21T07:40:05;83.88;;;23.85;;
19024;SDS011;9645;51.448;6.260;2022-11-21T07:42:33;116.20;;;30.17;;
19024;SDS011;9645;51.448;6.260;2022-11-21T07:45:01;105.50;;;27.02;;
19024;SDS011;9645;51.448;6.260;2022-11-21T07:47:28;124.60;;;27.20;;
19024;SDS011;9645;51.448;6.260;2022-11-21T07:49:55;112.40;;;26.27;;
19024;SDS011;9645;51.448;6.260;2022-11-21T07:52:22;97.72;;;25.92;;
19024;SDS011;9645;51.448;6.260;2022-11-21T07:54:50;107.50;;;25.17;;
19024;SDS011;9645;51.448;6.260;2022-11-21T07:57:17;91.35;;;25.20;;
19024;SDS011;9645;51.448;6.260;2022-11-21T07:59:44;82.03;;;21.38;;
19024;SDS011;9645;51.448;6.260;2022-11-21T08:02:15;106.22;;;26.15;;
19024;SDS011;9645;51.448;6.260;2022-11-21T08:04:44;81.82;;;23.40;;
19024;SDS011;9645;51.448;6.260;2022-11-21T08:07:11;67.15;;;20.55;;
19024;SDS011;9645;51.448;6.260;2022-11-21T08:09:38;61.22;;;19.65;;
19024;SDS011;9645;51.448;6.260;2022-11-21T08:12:05;64.18;;;18.35;;
19024;SDS011;9645;51.448;6.260;2022-11-21T08:14:33;55.30;;;17.95;;
19024;SDS011;9645;51.448;6.260;2022-11-21T08:17:00;56.17;;;16.35;;
19024;SDS011;9645;51.448;6.260;2022-11-21T08:19:28;49.85;;;15.05;;
19024;SDS011;9645;51.448;6.260;2022-11-21T08:21:55;41.83;;;14.32;;
19024;SDS011;9645;51.448;6.260;2022-11-21T08:24:22;38.80;;;13.88;;
19024;SDS011;9645;51.448;6.260;2022-11-21T08:26:49;31.55;;;12.65;;
19024;SDS011;9645;51.448;6.260;2022-11-21T08:29:16;34.22;;;11.98;;
19024;SDS011;9645;51.448;6.260;2022-11-21T08:31:44;35.22;;;11.10;;
19024;SDS011;9645;51.448;6.260;2022-11-21T08:34:11;40.15;;;13.20;;
19024;SDS011;9645;51.448;6.260;2022-11-21T08:36:39;31.92;;;11.27;;
19024;SDS011;9645;51.448;6.260;2022-11-21T08:39:06;31.88;;;12.27;;
19024;SDS011;9645;51.448;6.260;2022-11-21T08:41:33;47.17;;;12.25;;
19024;SDS011;9645;51.448;6.260;2022-11-21T08:44:14;36.70;;;11.88;;
19024;SDS011;9645;51.448;6.260;2022-11-21T08:46:41;35.03;;;12.27;;
19024;SDS011;9645;51.448;6.260;2022-11-21T08:49:08;35.83;;;11.55;;
19024;SDS011;9645;51.448;6.260;2022-11-21T08:51:35;26.60;;;11.55;;
19024;SDS011;9645;51.448;6.260;2022-11-21T08:54:03;35.08;;;12.57;;
19024;SDS011;9645;51.448;6.260;2022-11-21T08:56:30;35.28;;;11.60;;
19024;SDS011;9645;51.448;6.260;2022-11-21T08:58:57;45.65;;;12.18;;
19024;SDS011;9645;51.448;6.260;2022-11-21T09:01:24;29.75;;;11.85;;
19024;SDS011;9645;51.448;6.260;2022-11-21T09:03:51;32.53;;;11.30;;
19024;SDS011;9645;51.448;6.260;2022-11-21T09:06:18;29.63;;;11.27;;
19024;SDS011;9645;51.448;6.260;2022-11-21T09:08:45;35.05;;;11.82;;
19024;SDS011;9645;51.448;6.260;2022-11-21T09:11:13;29.10;;;12.07;;
19024;SDS011;9645;51.448;6.260;2022-11-21T09:13:40;44.28;;;13.02;;
19024;SDS011;9645;51.448;6.260;2022-11-21T09:16:09;34.83;;;13.90;;
19024;SDS011;9645;51.448;6.260;2022-11-21T09:18:54;40.33;;;13.85;;
19024;SDS011;9645;51.448;6.260;2022-11-21T09:21:21;37.85;;;12.10;;
19024;SDS011;9645;51.448;6.260;2022-11-21T09:23:48;31.67;;;13.25;;
19024;SDS011;9645;51.448;6.260;2022-11-21T09:26:16;24.65;;;9.93;;
19024;SDS011;9645;51.448;6.260;2022-11-21T09:28:43;18.75;;;8.68;;
19024;SDS011;9645;51.448;6.260;2022-11-21T09:31:10;27.00;;;8.30;;
19024;SDS011;9645;51.448;6.260;2022-11-21T09:33:37;18.73;;;8.50;;
19024;SDS011;9645;51.448;6.260;2022-11-21T09:36:04;21.08;;;8.07;;
19024;SDS011;9645;51.448;6.260;2022-11-21T09:38:31;22.20;;;8.95;;
19024;SDS011;9645;51.448;6.260;2022-11-21T09:40:59;21.77;;;9.35;;
19024;SDS011;9645;51.448;6.260;2022-11-21T09:44:01;19.42;;;8.75;;
19024;SDS011;9645;51.448;6.260;2022-11-21T09:46:36;17.15;;;7.97;;
19024;SDS011;9645;51.448;6.260;2022-11-21T09:49:11;24.10;;;9.38;;
19024;SDS011;9645;51.448;6.260;2022-11-21T09:51:40;16.60;;;7.68;;
19024;SDS011;9645;51.448;6.260;2022-11-21T09:54:10;13.85;;;7.32;;
19024;SDS011;9645;51.448;6.260;2022-11-21T09:56:42;15.90;;;7.77;;
19024;SDS011;9645;51.448;6.260;2022-11-21T09:59:15;13.33;;;6.93;;
19024;SDS011;9645;51.448;6.260;2022-11-21T10:01:52;17.07;;;7.70;;
19024;SDS011;9645;51.448;6.260;2022-11-21T10:04:19;14.20;;;7.00;;
19024;SDS011;9645;51.448;6.260;2022-11-21T10:06:47;20.85;;;7.50;;
19024;SDS011;9645;51.448;6.260;2022-11-21T10:09:26;12.70;;;7.00;;
19024;SDS011;9645;51.448;6.260;2022-11-21T10:12:10;13.93;;;7.60;;
19024;SDS011;9645;51.448;6.260;2022-11-21T10:15:05;16.88;;;6.72;;
19024;SDS011;9645;51.448;6.260;2022-11-21T10:17:45;16.63;;;7.13;;
19024;SDS011;9645;51.448;6.260;2022-11-21T10:20:24;14.60;;;8.32;;
19024;SDS011;9645;51.448;6.260;2022-11-21T10:23:01;15.20;;;7.38;;
19024;SDS011;9645;51.448;6.260;2022-11-21T10:25:44;13.65;;;7.45;;
19024;SDS011;9645;51.448;6.260;2022-11-21T10:28:16;20.63;;;8.30;;
19024;SDS011;9645;51.448;6.260;2022-11-21T10:30:51;26.15;;;9.15;;
19024;SDS011;9645;51.448;6.260;2022-11-21T10:33:21;14.57;;;7.25;;
19024;SDS011;9645;51.448;6.260;2022-11-21T10:35:52;19.17;;;8.35;;
19024;SDS011;9645;51.448;6.260;2022-11-21T10:38:23;20.98;;;8.23;;
19024;SDS011;9645;51.448;6.260;2022-11-21T10:40:51;16.77;;;8.85;;
19024;SDS011;9645;51.448;6.260;2022-11-21T10:43:23;23.25;;;9.98;;
19024;SDS011;9645;51.448;6.260;2022-11-21T10:46:18;25.98;;;9.50;;
19024;SDS011;9645;51.448;6.260;2022-11-21T10:48:46;21.10;;;8.73;;
19024;SDS011;9645;51.448;6.260;2022-11-21T10:51:21;18.63;;;9.60;;
19024;SDS011;9645;51.448;6.260;2022-11-21T10:54:06;18.02;;;8.98;;
19024;SDS011;9645;51.448;6.260;2022-11-21T10:56:51;31.27;;;9.85;;
19024;SDS011;9645;51.448;6.260;2022-11-21T10:59:22;30.77;;;8.32;;
19024;SDS011;9645;51.448;6.260;2022-11-21T11:01:56;27.25;;;9.10;;
19024;SDS011;9645;51.448;6.260;2022-11-21T11:04:25;16.67;;;6.90;;
19024;SDS011;9645;51.448;6.260;2022-11-21T11:06:52;16.42;;;7.45;;
19024;SDS011;9645;51.448;6.260;2022-11-21T11:09:20;16.25;;;5.78;;
19024;SDS011;9645;51.448;6.260;2022-11-21T11:11:48;22.00;;;7.47;;
19024;SDS011;9645;51.448;6.260;2022-11-21T11:14:15;16.73;;;6.50;;
19024;SDS011;9645;51.448;6.260;2022-11-21T11:16:56;20.67;;;5.97;;
19024;SDS011;9645;51.448;6.260;2022-11-21T11:19:25;22.42;;;7.85;;
19024;SDS011;9645;51.448;6.260;2022-11-21T11:21:53;13.75;;;5.70;;
19024;SDS011;9645;51.448;6.260;2022-11-21T11:24:22;12.32;;;5.65;;
19024;SDS011;9645;51.448;6.260;2022-11-21T11:26:54;21.40;;;5.47;;
19024;SDS011;9645;51.448;6.260;2022-11-21T11:29:24;24.55;;;8.48;;
19024;SDS011;9645;51.448;6.260;2022-11-21T11:31:54;70.07;;;18.88;;
19024;SDS011;9645;51.448;6.260;2022-11-21T11:34:26;20.95;;;8.52;;
19024;SDS011;9645;51.448;6.260;2022-11-21T11:37:06;23.60;;;8.43;;
19024;SDS011;9645;51.448;6.260;2022-11-21T11:39:38;12.05;;;5.65;;
19024;SDS011;9645;51.448;6.260;2022-11-21T11:45:49;28.17;;;8.93;;
19024;SDS011;9645;51.448;6.260;2022-11-21T11:48:42;19.05;;;5.82;;
19024;SDS011;9645;51.448;6.260;2022-11-21T11:51:12;12.73;;;5.18;;
19024;SDS011;9645;51.448;6.260;2022-11-21T11:53:47;15.43;;;4.90;;
19024;SDS011;9645;51.448;6.260;2022-11-21T11:56:19;22.13;;;6.30;;
19024;SDS011;9645;51.448;6.260;2022-11-21T11:58:50;14.10;;;5.38;;
19024;SDS011;9645;51.448;6.260;2022-11-21T12:01:23;13.93;;;4.75;;
19024;SDS011;9645;51.448;6.260;2022-11-21T12:03:56;14.20;;;5.70;;
19024;SDS011;9645;51.448;6.260;2022-11-21T12:06:27;17.10;;;5.30;;
19024;SDS011;9645;51.448;6.260;2022-11-21T12:08:58;12.73;;;5.78;;
19024;SDS011;9645;51.448;6.260;2022-11-21T12:11:31;12.25;;;4.45;;
19024;SDS011;9645;51.448;6.260;2022-11-21T12:14:34;13.00;;;3.92;;
19024;SDS011;9645;51.448;6.260;2022-11-21T12:17:29;15.00;;;5.15;;
19024;SDS011;9645;51.448;6.260;2022-11-21T12:20:02;6.15;;;3.55;;
19024;SDS011;9645;51.448;6.260;2022-11-21T12:22:38;13.68;;;4.60;;
19024;SDS011;9645;51.448;6.260;2022-11-21T12:25:08;11.93;;;4.10;;
19024;SDS011;9645;51.448;6.260;2022-11-21T12:27:36;12.50;;;5.65;;
19024;SDS011;9645;51.448;6.260;2022-11-21T12:33:11;10.00;;;3.45;;
19024;SDS011;9645;51.448;6.260;2022-11-21T12:35:52;22.20;;;6.53;;
19024;SDS011;9645;51.448;6.260;2022-11-21T12:38:54;6.75;;;2.70;;
19024;SDS011;9645;51.448;6.260;2022-11-21T12:41:31;12.45;;;4.60;;
19024;SDS011;9645;51.448;6.260;2022-11-21T12:44:27;9.40;;;4.47;;
19024;SDS011;9645;51.448;6.260;2022-11-21T12:47:07;6.35;;;3.45;;
19024;SDS011;9645;51.448;6.260;2022-11-21T12:49:45;8.95;;;2.47;;
19024;SDS011;9645;51.448;6.260;2022-11-21T12:52:39;9.60;;;2.22;;
19024;SDS011;9645;51.448;6.260;2022-11-21T12:55:33;5.75;;;2.13;;
19024;SDS011;9645;51.448;6.260;2022-11-21T12:58:19;9.27;;;2.55;;
19024;SDS011;9645;51.448;6.260;2022-11-21T13:00:58;11.35;;;2.00;;
19024;SDS011;9645;51.448;6.260;2022-11-21T13:03:34;9.23;;;2.10;;
19024;SDS011;9645;51.448;6.260;2022-11-21T13:06:10;5.95;;;1.67;;
19024;SDS011;9645;51.448;6.260;2022-11-21T13:11:13;7.43;;;1.55;;
19024;SDS011;9645;51.448;6.260;2022-11-21T13:14:08;2.55;;;1.40;;
19024;SDS011;9645;51.448;6.260;2022-11-21T13:16:45;8.95;;;2.03;;
19024;SDS011;9645;51.448;6.260;2022-11-21T13:19:20;3.05;;;1.60;;
19024;SDS011;9645;51.448;6.260;2022-11-21T13:21:50;3.42;;;1.70;;
19024;SDS011;9645;51.448;6.260;2022-11-21T13:27:28;6.68;;;1.45;;
19024;SDS011;9645;51.448;6.260;2022-11-21T13:30:17;11.57;;;4.82;;
19024;SDS011;9645;51.448;6.260;2022-11-21T13:32:46;5.35;;;1.88;;
19024;SDS011;9645;51.448;6.260;2022-11-21T13:38:30;10.68;;;2.95;;
19024;SDS011;9645;51.448;6.260;2022-11-21T13:44:39;12.68;;;2.92;;
19024;SDS011;9645;51.448;6.260;2022-11-21T13:47:09;5.65;;;3.78;;
19024;SDS011;9645;51.448;6.260;2022-11-21T13:49:55;9.52;;;4.03;;
19024;SDS011;9645;51.448;6.260;2022-11-21T13:52:30;19.92;;;5.75;;
19024;SDS011;9645;51.448;6.260;2022-11-21T13:55:10;18.90;;;6.75;;
19024;SDS011;9645;51.448;6.260;2022-11-21T13:58:01;8.13;;;2.80;;
19024;SDS011;9645;51.448;6.260;2022-11-21T14:00:43;15.77;;;5.68;;
19024;SDS011;9645;51.448;6.260;2022-11-21T14:06:28;30.35;;;8.77;;
19024;SDS011;9645;51.448;6.260;2022-11-21T14:09:05;31.77;;;10.13;;
19024;SDS011;9645;51.448;6.260;2022-11-21T14:11:44;26.38;;;9.80;;
19024;SDS011;9645;51.448;6.260;2022-11-21T14:14:24;51.13;;;15.60;;
19024;SDS011;9645;51.448;6.260;2022-11-21T14:16:57;34.33;;;11.60;;
19024;SDS011;9645;51.448;6.260;2022-11-21T14:19:34;19.30;;;7.32;;
19024;SDS011;9645;51.448;6.260;2022-11-21T14:22:01;22.60;;;6.97;;
19024;SDS011;9645;51.448;6.260;2022-11-21T14:24:28;7.60;;;2.88;;
19024;SDS011;9645;51.448;6.260;2022-11-21T14:26:55;25.80;;;10.77;;
19024;SDS011;9645;51.448;6.260;2022-11-21T14:29:25;17.55;;;7.72;;
19024;SDS011;9645;51.448;6.260;2022-11-21T14:31:53;13.82;;;6.65;;
19024;SDS011;9645;51.448;6.260;2022-11-21T14:34:25;12.65;;;6.15;;
19024;SDS011;9645;51.448;6.260;2022-11-21T14:36:53;14.10;;;6.20;;
19024;SDS011;9645;51.448;6.260;2022-11-21T14:39:24;10.45;;;3.15;;
19024;SDS011;9645;51.448;6.260;2022-11-21T14:41:53;5.40;;;2.70;;
19024;SDS011;9645;51.448;6.260;2022-11-21T14:44:21;5.82;;;2.83;;
19024;SDS011;9645;51.448;6.260;2022-11-21T14:46:49;10.82;;;2.78;;
19024;SDS011;9645;51.448;6.260;2022-11-21T14:49:23;13.63;;;4.57;;
19024;SDS011;9645;51.448;6.260;2022-11-21T14:51:59;5.85;;;2.70;;
19024;SDS011;9645;51.448;6.260;2022-11-21T14:54:29;6.22;;;2.00;;
19024;SDS011;9645;51.448;6.260;2022-11-21T14:57:01;3.22;;;2.20;;
19024;SDS011;9645;51.448;6.260;2022-11-21T14:59:32;10.52;;;2.38;;
19024;SDS011;9645;51.448;6.260;2022-11-21T15:02:06;11.85;;;2.30;;
19024;SDS011;9645;51.448;6.260;2022-11-21T15:04:39;5.22;;;2.50;;
19024;SDS011;9645;51.448;6.260;2022-11-21T15:07:14;8.98;;;3.33;;
19024;SDS011;9645;51.448;6.260;2022-11-21T15:09:44;14.20;;;3.30;;
19024;SDS011;9645;51.448;6.260;2022-11-21T15:12:11;10.20;;;2.95;;
19024;SDS011;9645;51.448;6.260;2022-11-21T15:14:44;12.82;;;2.90;;
19024;SDS011;9645;51.448;6.260;2022-11-21T15:17:16;7.35;;;3.10;;
19024;SDS011;9645;51.448;6.260;2022-11-21T15:19:50;8.00;;;3.00;;
19024;SDS011;9645;51.448;6.260;2022-11-21T15:22:32;10.48;;;4.80;;
19024;SDS011;9645;51.448;6.260;2022-11-21T15:25:05;10.63;;;3.25;;